sensor_id;sensor_type;location;lat;lon;timestamp;P1;durP1;ratioP1;P2;durP2;ratioP2
10442;SDS011;5269;51.146;16.986;2022-07-23T00:00:14;12.73;;;11.52;;
10442;SDS011;5269;51.146;16.986;2022-07-23T00:02:41;14.38;;;10.88;;
10442;SDS011;5269;51.146;16.986;2022-07-23T00:05:10;16.17;;;10.73;;
10442;SDS011;5269;51.146;16.986;2022-07-23T00:07:37;11.85;;;10.65;;
10442;SDS011;5269;51.146;16.986;2022-07-23T00:10:04;12.70;;;11.45;;
10442;SDS011;5269;51.146;16.986;2022-07-23T00:12:32;14.38;;;11.20;;
10442;SDS011;5269;51.146;16.986;2022-07-23T00:15:01;13.95;;;11.77;;
10442;SDS011;5269;51.146;16.986;2022-07-23T00:17:28;12.73;;;11.43;;
10442;SDS011;5269;51.146;16.986;2022-07-23T00:19:54;13.80;;;12.05;;
10442;SDS011;5269;51.146;16.986;2022-07-23T00:22:21;12.50;;;11.30;;
10442;SDS011;5269;51.146;16.986;2022-07-23T00:24:48;14.25;;;11.18;;
10442;SDS011;5269;51.146;16.986;2022-07-23T00:27:15;13.02;;;11.52;;
10442;SDS011;5269;51.146;16.986;2022-07-23T00:29:42;12.45;;;11.32;;
10442;SDS011;5269;51.146;16.986;2022-07-23T00:32:10;14.65;;;11.57;;
10442;SDS011;5269;51.146;16.986;2022-07-23T00:34:37;13.32;;;12.13;;
10442;SDS011;5269;51.146;16.986;2022-07-23T00:37:04;12.40;;;11.30;;
10442;SDS011;5269;51.146;16.986;2022-07-23T00:39:31;15.20;;;12.20;;
10442;SDS011;5269;51.146;16.986;2022-07-23T00:41:58;13.05;;;11.63;;
10442;SDS011;5269;51.146;16.986;2022-07-23T00:44:26;13.32;;;11.38;;
10442;SDS011;5269;51.146;16.986;2022-07-23T00:46:55;13.38;;;12.13;;
10442;SDS011;5269;51.146;16.986;2022-07-23T00:49:25;12.55;;;11.35;;
10442;SDS011;5269;51.146;16.986;2022-07-23T00:51:54;12.02;;;10.95;;
10442;SDS011;5269;51.146;16.986;2022-07-23T00:54:22;14.05;;;11.50;;
10442;SDS011;5269;51.146;16.986;2022-07-23T00:56:49;12.57;;;11.38;;
10442;SDS011;5269;51.146;16.986;2022-07-23T00:59:16;12.65;;;11.35;;
10442;SDS011;5269;51.146;16.986;2022-07-23T01:01:43;15.07;;;12.20;;
10442;SDS011;5269;51.146;16.986;2022-07-23T01:04:12;13.65;;;12.27;;
10442;SDS011;5269;51.146;16.986;2022-07-23T01:06:41;13.07;;;11.35;;
10442;SDS011;5269;51.146;16.986;2022-07-23T01:09:10;13.57;;;12.25;;
10442;SDS011;5269;51.146;16.986;2022-07-23T01:11:37;15.20;;;12.98;;
10442;SDS011;5269;51.146;16.986;2022-07-23T01:14:07;12.93;;;11.65;;
10442;SDS011;5269;51.146;16.986;2022-07-23T01:16:35;13.98;;;11.95;;
10442;SDS011;5269;51.146;16.986;2022-07-23T01:19:02;13.40;;;12.00;;
10442;SDS011;5269;51.146;16.986;2022-07-23T01:21:32;13.57;;;12.27;;
10442;SDS011;5269;51.146;16.986;2022-07-23T01:24:06;14.95;;;12.73;;
10442;SDS011;5269;51.146;16.986;2022-07-23T01:26:33;14.45;;;12.93;;
10442;SDS011;5269;51.146;16.986;2022-07-23T01:29:01;19.40;;;13.20;;
10442;SDS011;5269;51.146;16.986;2022-07-23T01:31:29;14.20;;;12.75;;
10442;SDS011;5269;51.146;16.986;2022-07-23T01:33:57;14.13;;;12.38;;
10442;SDS011;5269;51.146;16.986;2022-07-23T01:36:24;13.55;;;11.65;;
10442;SDS011;5269;51.146;16.986;2022-07-23T01:38:51;14.63;;;12.75;;
10442;SDS011;5269;51.146;16.986;2022-07-23T01:41:19;14.32;;;12.80;;
10442;SDS011;5269;51.146;16.986;2022-07-23T01:43:46;12.82;;;11.63;;
10442;SDS011;5269;51.146;16.986;2022-07-23T01:46:13;13.63;;;12.32;;
10442;SDS011;5269;51.146;16.986;2022-07-23T01:48:40;13.75;;;12.27;;
10442;SDS011;5269;51.146;16.986;2022-07-23T01:51:07;13.38;;;12.02;;
10442;SDS011;5269;51.146;16.986;2022-07-23T01:53:36;14.27;;;12.80;;
10442;SDS011;5269;51.146;16.986;2022-07-23T01:56:03;14.35;;;13.10;;
10442;SDS011;5269;51.146;16.986;2022-07-23T01:58:32;14.52;;;12.73;;
10442;SDS011;5269;51.146;16.986;2022-07-23T02:00:59;13.98;;;12.57;;
10442;SDS011;5269;51.146;16.986;2022-07-23T02:03:26;13.55;;;11.95;;
10442;SDS011;5269;51.146;16.986;2022-07-23T02:05:53;12.65;;;11.25;;
10442;SDS011;5269;51.146;16.986;2022-07-23T02:08:20;13.23;;;11.95;;
10442;SDS011;5269;51.146;16.986;2022-07-23T02:10:47;13.63;;;12.00;;
10442;SDS011;5269;51.146;16.986;2022-07-23T02:13:16;13.32;;;11.98;;
10442;SDS011;5269;51.146;16.986;2022-07-23T02:15:44;12.23;;;11.13;;
10442;SDS011;5269;51.146;16.986;2022-07-23T02:18:12;13.20;;;11.82;;
10442;SDS011;5269;51.146;16.986;2022-07-23T02:20:39;12.43;;;11.13;;
10442;SDS011;5269;51.146;16.986;2022-07-23T02:23:06;13.80;;;11.77;;
10442;SDS011;5269;51.146;16.986;2022-07-23T02:25:33;12.88;;;11.52;;
10442;SDS011;5269;51.146;16.986;2022-07-23T02:28:00;12.18;;;10.88;;
10442;SDS011;5269;51.146;16.986;2022-07-23T02:30:27;13.23;;;11.82;;
10442;SDS011;5269;51.146;16.986;2022-07-23T02:32:55;12.93;;;11.73;;
10442;SDS011;5269;51.146;16.986;2022-07-23T02:35:22;12.70;;;10.77;;
10442;SDS011;5269;51.146;16.986;2022-07-23T02:37:49;14.43;;;12.00;;
10442;SDS011;5269;51.146;16.986;2022-07-23T02:40:16;12.50;;;11.27;;
10442;SDS011;5269;51.146;16.986;2022-07-23T02:42:44;11.63;;;10.52;;
10442;SDS011;5269;51.146;16.986;2022-07-23T02:45:11;14.10;;;11.10;;
10442;SDS011;5269;51.146;16.986;2022-07-23T02:47:38;12.38;;;11.15;;
10442;SDS011;5269;51.146;16.986;2022-07-23T02:50:07;13.98;;;10.95;;
10442;SDS011;5269;51.146;16.986;2022-07-23T02:52:35;11.70;;;10.55;;
10442;SDS011;5269;51.146;16.986;2022-07-23T02:55:03;13.93;;;11.40;;
10442;SDS011;5269;51.146;16.986;2022-07-23T02:57:30;12.73;;;11.52;;
10442;SDS011;5269;51.146;16.986;2022-07-23T02:59:57;13.65;;;12.40;;
10442;SDS011;5269;51.146;16.986;2022-07-23T03:02:24;13.50;;;12.30;;
10442;SDS011;5269;51.146;16.986;2022-07-23T03:04:51;12.60;;;11.52;;
10442;SDS011;5269;51.146;16.986;2022-07-23T03:07:19;12.77;;;11.55;;
10442;SDS011;5269;51.146;16.986;2022-07-23T03:09:46;13.73;;;12.32;;
10442;SDS011;5269;51.146;16.986;2022-07-23T03:12:13;12.73;;;11.52;;
10442;SDS011;5269;51.146;16.986;2022-07-23T03:14:40;14.40;;;11.55;;
10442;SDS011;5269;51.146;16.986;2022-07-23T03:17:08;12.75;;;11.25;;
10442;SDS011;5269;51.146;16.986;2022-07-23T03:19:35;13.00;;;11.80;;
10442;SDS011;5269;51.146;16.986;2022-07-23T03:22:02;13.50;;;12.10;;
10442;SDS011;5269;51.146;16.986;2022-07-23T03:24:30;12.93;;;11.60;;
10442;SDS011;5269;51.146;16.986;2022-07-23T03:27:11;12.30;;;11.20;;
10442;SDS011;5269;51.146;16.986;2022-07-23T03:29:38;12.93;;;11.73;;
10442;SDS011;5269;51.146;16.986;2022-07-23T03:32:05;13.13;;;11.95;;
10442;SDS011;5269;51.146;16.986;2022-07-23T03:34:32;12.88;;;11.55;;
10442;SDS011;5269;51.146;16.986;2022-07-23T03:36:59;13.32;;;11.95;;
10442;SDS011;5269;51.146;16.986;2022-07-23T03:39:26;12.77;;;11.52;;
10442;SDS011;5269;51.146;16.986;2022-07-23T03:41:54;12.93;;;11.73;;
10442;SDS011;5269;51.146;16.986;2022-07-23T03:44:21;12.85;;;11.63;;
10442;SDS011;5269;51.146;16.986;2022-07-23T03:46:48;13.13;;;11.65;;
10442;SDS011;5269;51.146;16.986;2022-07-23T03:49:15;12.82;;;11.63;;
10442;SDS011;5269;51.146;16.986;2022-07-23T03:51:42;12.65;;;11.35;;
10442;SDS011;5269;51.146;16.986;2022-07-23T03:54:09;14.43;;;11.18;;
10442;SDS011;5269;51.146;16.986;2022-07-23T03:56:36;13.18;;;11.88;;
10442;SDS011;5269;51.146;16.986;2022-07-23T03:59:04;12.75;;;11.60;;
10442;SDS011;5269;51.146;16.986;2022-07-23T04:01:31;13.63;;;11.48;;
10442;SDS011;5269;51.146;16.986;2022-07-23T04:03:58;13.60;;;12.05;;
10442;SDS011;5269;51.146;16.986;2022-07-23T04:06:25;12.05;;;10.90;;
10442;SDS011;5269;51.146;16.986;2022-07-23T04:08:52;12.18;;;10.95;;
10442;SDS011;5269;51.146;16.986;2022-07-23T04:11:19;11.52;;;10.52;;
10442;SDS011;5269;51.146;16.986;2022-07-23T04:13:46;11.88;;;10.45;;
10442;SDS011;5269;51.146;16.986;2022-07-23T04:16:14;11.60;;;10.50;;
10442;SDS011;5269;51.146;16.986;2022-07-23T04:18:41;13.48;;;11.20;;
10442;SDS011;5269;51.146;16.986;2022-07-23T04:21:08;12.13;;;11.00;;
10442;SDS011;5269;51.146;16.986;2022-07-23T04:23:35;14.27;;;11.55;;
10442;SDS011;5269;51.146;16.986;2022-07-23T04:26:02;13.45;;;12.15;;
10442;SDS011;5269;51.146;16.986;2022-07-23T04:28:29;13.13;;;11.82;;
10442;SDS011;5269;51.146;16.986;2022-07-23T04:30:56;13.30;;;12.00;;
10442;SDS011;5269;51.146;16.986;2022-07-23T04:33:24;13.45;;;12.32;;
10442;SDS011;5269;51.146;16.986;2022-07-23T04:35:51;14.63;;;12.40;;
10442;SDS011;5269;51.146;16.986;2022-07-23T04:38:18;12.57;;;11.55;;
10442;SDS011;5269;51.146;16.986;2022-07-23T04:40:45;13.13;;;11.00;;
10442;SDS011;5269;51.146;16.986;2022-07-23T04:43:12;12.57;;;11.38;;
10442;SDS011;5269;51.146;16.986;2022-07-23T04:45:39;11.50;;;10.40;;
10442;SDS011;5269;51.146;16.986;2022-07-23T04:48:06;17.27;;;12.30;;
10442;SDS011;5269;51.146;16.986;2022-07-23T04:50:35;14.48;;;11.90;;
10442;SDS011;5269;51.146;16.986;2022-07-23T04:53:02;13.93;;;11.93;;
10442;SDS011;5269;51.146;16.986;2022-07-23T04:55:29;13.10;;;11.90;;
10442;SDS011;5269;51.146;16.986;2022-07-23T04:57:55;13.52;;;11.45;;
10442;SDS011;5269;51.146;16.986;2022-07-23T05:00:24;12.13;;;11.02;;
10442;SDS011;5269;51.146;16.986;2022-07-23T05:02:51;13.02;;;11.73;;
10442;SDS011;5269;51.146;16.986;2022-07-23T05:05:18;12.32;;;11.07;;
10442;SDS011;5269;51.146;16.986;2022-07-23T05:07:46;12.95;;;11.57;;
10442;SDS011;5269;51.146;16.986;2022-07-23T05:10:13;11.55;;;10.45;;
10442;SDS011;5269;51.146;16.986;2022-07-23T05:12:40;12.65;;;10.13;;
10442;SDS011;5269;51.146;16.986;2022-07-23T05:15:07;10.57;;;9.57;;
10442;SDS011;5269;51.146;16.986;2022-07-23T05:17:34;10.32;;;9.43;;
10442;SDS011;5269;51.146;16.986;2022-07-23T05:20:01;11.50;;;9.45;;
10442;SDS011;5269;51.146;16.986;2022-07-23T05:22:29;10.23;;;9.18;;
10442;SDS011;5269;51.146;16.986;2022-07-23T05:24:57;10.15;;;9.35;;
10442;SDS011;5269;51.146;16.986;2022-07-23T05:27:24;10.50;;;9.50;;
10442;SDS011;5269;51.146;16.986;2022-07-23T05:29:54;10.73;;;9.73;;
10442;SDS011;5269;51.146;16.986;2022-07-23T05:32:20;10.75;;;9.02;;
10442;SDS011;5269;51.146;16.986;2022-07-23T05:34:48;10.35;;;9.30;;
10442;SDS011;5269;51.146;16.986;2022-07-23T05:37:16;10.07;;;9.13;;
10442;SDS011;5269;51.146;16.986;2022-07-23T05:39:43;11.82;;;9.18;;
10442;SDS011;5269;51.146;16.986;2022-07-23T05:42:11;9.98;;;9.00;;
10442;SDS011;5269;51.146;16.986;2022-07-23T05:44:38;9.40;;;8.60;;
10442;SDS011;5269;51.146;16.986;2022-07-23T05:47:05;10.20;;;8.82;;
10442;SDS011;5269;51.146;16.986;2022-07-23T05:49:32;10.65;;;9.00;;
10442;SDS011;5269;51.146;16.986;2022-07-23T05:52:00;9.43;;;8.43;;
10442;SDS011;5269;51.146;16.986;2022-07-23T05:54:30;8.80;;;8.00;;
10442;SDS011;5269;51.146;16.986;2022-07-23T05:56:57;10.10;;;9.10;;
10442;SDS011;5269;51.146;16.986;2022-07-23T05:59:25;9.35;;;8.55;;
10442;SDS011;5269;51.146;16.986;2022-07-23T06:01:52;10.18;;;9.07;;
10442;SDS011;5269;51.146;16.986;2022-07-23T06:04:19;10.00;;;9.13;;
10442;SDS011;5269;51.146;16.986;2022-07-23T06:06:46;12.23;;;8.88;;
10442;SDS011;5269;51.146;16.986;2022-07-23T06:09:13;10.25;;;9.13;;
10442;SDS011;5269;51.146;16.986;2022-07-23T06:14:08;11.27;;;9.00;;
10442;SDS011;5269;51.146;16.986;2022-07-23T06:16:36;9.38;;;8.57;;
10442;SDS011;5269;51.146;16.986;2022-07-23T06:19:03;9.48;;;8.30;;
10442;SDS011;5269;51.146;16.986;2022-07-23T06:21:30;9.73;;;8.55;;
10442;SDS011;5269;51.146;16.986;2022-07-23T06:23:57;9.95;;;8.95;;
10442;SDS011;5269;51.146;16.986;2022-07-23T06:26:24;10.10;;;8.82;;
10442;SDS011;5269;51.146;16.986;2022-07-23T06:28:51;11.63;;;8.82;;
10442;SDS011;5269;51.146;16.986;2022-07-23T06:31:18;9.35;;;8.45;;
10442;SDS011;5269;51.146;16.986;2022-07-23T06:33:46;9.18;;;8.38;;
10442;SDS011;5269;51.146;16.986;2022-07-23T06:36:13;9.70;;;8.77;;
10442;SDS011;5269;51.146;16.986;2022-07-23T06:38:40;12.25;;;10.75;;
10442;SDS011;5269;51.146;16.986;2022-07-23T06:41:07;9.52;;;8.63;;
10442;SDS011;5269;51.146;16.986;2022-07-23T06:43:34;9.68;;;8.88;;
10442;SDS011;5269;51.146;16.986;2022-07-23T06:46:00;11.07;;;8.40;;
10442;SDS011;5269;51.146;16.986;2022-07-23T06:48:27;11.93;;;9.07;;
10442;SDS011;5269;51.146;16.986;2022-07-23T06:50:56;9.20;;;8.30;;
10442;SDS011;5269;51.146;16.986;2022-07-23T06:53:23;9.40;;;8.60;;
10442;SDS011;5269;51.146;16.986;2022-07-23T06:55:49;9.23;;;8.52;;
10442;SDS011;5269;51.146;16.986;2022-07-23T06:58:16;12.93;;;8.93;;
10442;SDS011;5269;51.146;16.986;2022-07-23T07:00:44;15.48;;;9.43;;
10442;SDS011;5269;51.146;16.986;2022-07-23T07:03:11;9.52;;;8.75;;
10442;SDS011;5269;51.146;16.986;2022-07-23T07:05:38;10.00;;;9.00;;
10442;SDS011;5269;51.146;16.986;2022-07-23T07:08:07;11.90;;;9.10;;
10442;SDS011;5269;51.146;16.986;2022-07-23T07:10:34;11.63;;;8.73;;
10442;SDS011;5269;51.146;16.986;2022-07-23T07:13:01;10.40;;;9.40;;
10442;SDS011;5269;51.146;16.986;2022-07-23T07:15:28;9.90;;;9.00;;
10442;SDS011;5269;51.146;16.986;2022-07-23T07:17:54;10.15;;;9.20;;
10442;SDS011;5269;51.146;16.986;2022-07-23T07:20:21;10.38;;;9.32;;
10442;SDS011;5269;51.146;16.986;2022-07-23T07:22:49;10.65;;;9.55;;
10442;SDS011;5269;51.146;16.986;2022-07-23T07:25:17;14.13;;;10.05;;
10442;SDS011;5269;51.146;16.986;2022-07-23T07:27:44;10.80;;;9.85;;
10442;SDS011;5269;51.146;16.986;2022-07-23T07:30:11;10.95;;;9.85;;
10442;SDS011;5269;51.146;16.986;2022-07-23T07:32:39;13.63;;;9.70;;
10442;SDS011;5269;51.146;16.986;2022-07-23T07:35:06;11.35;;;8.65;;
10442;SDS011;5269;51.146;16.986;2022-07-23T07:37:34;10.05;;;9.15;;
10442;SDS011;5269;51.146;16.986;2022-07-23T07:40:01;12.63;;;9.82;;
10442;SDS011;5269;51.146;16.986;2022-07-23T07:42:30;10.70;;;9.65;;
10442;SDS011;5269;51.146;16.986;2022-07-23T07:44:57;13.57;;;9.43;;
10442;SDS011;5269;51.146;16.986;2022-07-23T07:47:24;9.90;;;8.88;;
10442;SDS011;5269;51.146;16.986;2022-07-23T07:49:51;11.45;;;9.73;;
10442;SDS011;5269;51.146;16.986;2022-07-23T07:52:18;12.43;;;9.82;;
10442;SDS011;5269;51.146;16.986;2022-07-23T07:54:45;11.23;;;9.95;;
10442;SDS011;5269;51.146;16.986;2022-07-23T07:57:12;11.68;;;10.23;;
10442;SDS011;5269;51.146;16.986;2022-07-23T07:59:40;12.77;;;9.85;;
10442;SDS011;5269;51.146;16.986;2022-07-23T08:02:07;11.05;;;10.05;;
10442;SDS011;5269;51.146;16.986;2022-07-23T08:04:34;10.88;;;9.77;;
10442;SDS011;5269;51.146;16.986;2022-07-23T08:07:01;10.25;;;9.20;;
10442;SDS011;5269;51.146;16.986;2022-07-23T08:09:28;11.23;;;10.18;;
10442;SDS011;5269;51.146;16.986;2022-07-23T08:11:55;12.77;;;10.00;;
10442;SDS011;5269;51.146;16.986;2022-07-23T08:14:22;13.38;;;9.30;;
10442;SDS011;5269;51.146;16.986;2022-07-23T08:16:50;11.25;;;9.30;;
10442;SDS011;5269;51.146;16.986;2022-07-23T08:19:17;11.20;;;10.07;;
10442;SDS011;5269;51.146;16.986;2022-07-23T08:21:44;10.70;;;9.60;;
10442;SDS011;5269;51.146;16.986;2022-07-23T08:24:11;12.15;;;9.65;;
10442;SDS011;5269;51.146;16.986;2022-07-23T08:26:38;10.65;;;9.55;;
10442;SDS011;5269;51.146;16.986;2022-07-23T08:29:04;11.45;;;10.13;;
10442;SDS011;5269;51.146;16.986;2022-07-23T08:31:31;10.90;;;9.77;;
10442;SDS011;5269;51.146;16.986;2022-07-23T08:34:00;13.18;;;9.32;;
10442;SDS011;5269;51.146;16.986;2022-07-23T08:36:27;10.88;;;9.68;;
10442;SDS011;5269;51.146;16.986;2022-07-23T08:38:57;10.68;;;9.65;;
10442;SDS011;5269;51.146;16.986;2022-07-23T08:41:24;12.43;;;10.05;;
10442;SDS011;5269;51.146;16.986;2022-07-23T08:43:53;10.90;;;9.80;;
10442;SDS011;5269;51.146;16.986;2022-07-23T08:46:21;11.07;;;9.68;;
10442;SDS011;5269;51.146;16.986;2022-07-23T08:48:50;13.35;;;10.02;;
10442;SDS011;5269;51.146;16.986;2022-07-23T08:51:19;12.02;;;10.27;;
10442;SDS011;5269;51.146;16.986;2022-07-23T08:53:46;13.70;;;10.15;;
10442;SDS011;5269;51.146;16.986;2022-07-23T08:56:14;12.23;;;10.20;;
10442;SDS011;5269;51.146;16.986;2022-07-23T08:58:41;12.50;;;10.45;;
10442;SDS011;5269;51.146;16.986;2022-07-23T09:01:08;15.60;;;10.13;;
10442;SDS011;5269;51.146;16.986;2022-07-23T09:03:37;12.52;;;10.20;;
10442;SDS011;5269;51.146;16.986;2022-07-23T09:06:04;14.73;;;10.55;;
10442;SDS011;5269;51.146;16.986;2022-07-23T09:08:37;16.73;;;11.43;;
10442;SDS011;5269;51.146;16.986;2022-07-23T09:11:05;15.70;;;10.25;;
10442;SDS011;5269;51.146;16.986;2022-07-23T09:13:35;11.90;;;10.82;;
10442;SDS011;5269;51.146;16.986;2022-07-23T09:16:05;10.85;;;9.75;;
10442;SDS011;5269;51.146;16.986;2022-07-23T09:18:37;10.77;;;9.75;;
10442;SDS011;5269;51.146;16.986;2022-07-23T09:21:14;11.73;;;10.63;;
10442;SDS011;5269;51.146;16.986;2022-07-23T09:23:48;12.75;;;10.73;;
10442;SDS011;5269;51.146;16.986;2022-07-23T09:26:28;12.60;;;10.48;;
10442;SDS011;5269;51.146;16.986;2022-07-23T09:29:02;11.95;;;10.00;;
10442;SDS011;5269;51.146;16.986;2022-07-23T09:31:41;12.02;;;10.10;;
10442;SDS011;5269;51.146;16.986;2022-07-23T09:34:12;12.18;;;10.20;;
10442;SDS011;5269;51.146;16.986;2022-07-23T09:36:41;12.20;;;11.00;;
10442;SDS011;5269;51.146;16.986;2022-07-23T09:39:11;11.27;;;10.18;;
10442;SDS011;5269;51.146;16.986;2022-07-23T09:41:40;10.95;;;9.88;;
10442;SDS011;5269;51.146;16.986;2022-07-23T09:44:15;11.95;;;10.07;;
10442;SDS011;5269;51.146;16.986;2022-07-23T09:46:43;12.95;;;10.00;;
10442;SDS011;5269;51.146;16.986;2022-07-23T09:49:15;11.27;;;10.15;;
10442;SDS011;5269;51.146;16.986;2022-07-23T09:51:45;13.18;;;10.15;;
10442;SDS011;5269;51.146;16.986;2022-07-23T09:54:23;10.77;;;9.68;;
10442;SDS011;5269;51.146;16.986;2022-07-23T09:56:56;12.25;;;9.88;;
10442;SDS011;5269;51.146;16.986;2022-07-23T09:59:26;15.43;;;10.45;;
10442;SDS011;5269;51.146;16.986;2022-07-23T10:01:54;11.38;;;10.20;;
10442;SDS011;5269;51.146;16.986;2022-07-23T10:04:24;12.05;;;10.85;;
10442;SDS011;5269;51.146;16.986;2022-07-23T10:06:52;16.50;;;10.68;;
10442;SDS011;5269;51.146;16.986;2022-07-23T10:09:26;11.65;;;10.50;;
10442;SDS011;5269;51.146;16.986;2022-07-23T10:11:55;13.10;;;9.57;;
10442;SDS011;5269;51.146;16.986;2022-07-23T10:14:31;14.25;;;10.40;;
10442;SDS011;5269;51.146;16.986;2022-07-23T10:17:00;11.02;;;9.32;;
10442;SDS011;5269;51.146;16.986;2022-07-23T10:19:27;11.40;;;9.25;;
10442;SDS011;5269;51.146;16.986;2022-07-23T10:21:55;23.70;;;14.45;;
10442;SDS011;5269;51.146;16.986;2022-07-23T10:24:30;19.02;;;10.75;;
10442;SDS011;5269;51.146;16.986;2022-07-23T10:27:16;12.95;;;9.88;;
10442;SDS011;5269;51.146;16.986;2022-07-23T10:30:10;20.88;;;11.93;;
10442;SDS011;5269;51.146;16.986;2022-07-23T10:32:44;15.88;;;11.70;;
10442;SDS011;5269;51.146;16.986;2022-07-23T10:35:26;40.63;;;20.13;;
10442;SDS011;5269;51.146;16.986;2022-07-23T10:38:02;60.88;;;29.77;;
10442;SDS011;5269;51.146;16.986;2022-07-23T10:40:56;83.32;;;34.63;;
10442;SDS011;5269;51.146;16.986;2022-07-23T10:43:24;62.05;;;29.25;;
10442;SDS011;5269;51.146;16.986;2022-07-23T10:45:52;46.97;;;21.65;;
10442;SDS011;5269;51.146;16.986;2022-07-23T10:48:23;31.88;;;17.30;;
10442;SDS011;5269;51.146;16.986;2022-07-23T10:51:07;29.60;;;16.52;;
10442;SDS011;5269;51.146;16.986;2022-07-23T10:53:55;17.08;;;13.30;;
10442;SDS011;5269;51.146;16.986;2022-07-23T11:02:34;15.55;;;13.80;;
10442;SDS011;5269;51.146;16.986;2022-07-23T11:05:03;19.45;;;14.43;;
10442;SDS011;5269;51.146;16.986;2022-07-23T11:07:31;14.80;;;12.77;;
10442;SDS011;5269;51.146;16.986;2022-07-23T11:09:58;15.98;;;13.00;;
10442;SDS011;5269;51.146;16.986;2022-07-23T11:12:33;13.35;;;11.90;;
10442;SDS011;5269;51.146;16.986;2022-07-23T11:15:04;15.07;;;13.45;;
10442;SDS011;5269;51.146;16.986;2022-07-23T11:20:25;15.48;;;14.02;;
10442;SDS011;5269;51.146;16.986;2022-07-23T11:22:54;14.45;;;13.02;;
10442;SDS011;5269;51.146;16.986;2022-07-23T11:25:30;15.27;;;13.40;;
10442;SDS011;5269;51.146;16.986;2022-07-23T11:28:12;16.63;;;13.15;;
10442;SDS011;5269;51.146;16.986;2022-07-23T11:30:42;19.33;;;13.68;;
10442;SDS011;5269;51.146;16.986;2022-07-23T11:33:17;15.05;;;13.57;;
10442;SDS011;5269;51.146;16.986;2022-07-23T11:35:46;14.63;;;12.77;;
10442;SDS011;5269;51.146;16.986;2022-07-23T11:38:18;13.95;;;12.57;;
10442;SDS011;5269;51.146;16.986;2022-07-23T11:44:24;14.10;;;12.88;;
10442;SDS011;5269;51.146;16.986;2022-07-23T11:46:55;13.70;;;11.90;;
10442;SDS011;5269;51.146;16.986;2022-07-23T11:49:22;18.50;;;12.73;;
10442;SDS011;5269;51.146;16.986;2022-07-23T11:52:02;18.13;;;14.75;;
10442;SDS011;5269;51.146;16.986;2022-07-23T11:54:30;17.30;;;14.85;;
10442;SDS011;5269;51.146;16.986;2022-07-23T11:56:57;15.95;;;14.23;;
10442;SDS011;5269;51.146;16.986;2022-07-23T11:59:26;16.40;;;13.52;;
10442;SDS011;5269;51.146;16.986;2022-07-23T12:01:58;17.23;;;13.88;;
10442;SDS011;5269;51.146;16.986;2022-07-23T12:04:36;16.55;;;14.07;;
10442;SDS011;5269;51.146;16.986;2022-07-23T12:07:03;15.70;;;13.52;;
10442;SDS011;5269;51.146;16.986;2022-07-23T12:09:30;16.48;;;13.60;;
10442;SDS011;5269;51.146;16.986;2022-07-23T12:11:57;17.05;;;13.80;;
10442;SDS011;5269;51.146;16.986;2022-07-23T12:14:28;14.13;;;12.75;;
10442;SDS011;5269;51.146;16.986;2022-07-23T12:17:07;16.50;;;13.73;;
10442;SDS011;5269;51.146;16.986;2022-07-23T12:19:34;15.00;;;13.20;;
10442;SDS011;5269;51.146;16.986;2022-07-23T12:22:02;14.57;;;13.27;;
10442;SDS011;5269;51.146;16.986;2022-07-23T12:24:29;15.30;;;13.70;;
10442;SDS011;5269;51.146;16.986;2022-07-23T12:27:08;14.82;;;12.98;;
10442;SDS011;5269;51.146;16.986;2022-07-23T12:29:37;15.05;;;13.55;;
10442;SDS011;5269;51.146;16.986;2022-07-23T12:32:16;15.13;;;13.50;;
10442;SDS011;5269;51.146;16.986;2022-07-23T12:34:48;14.63;;;13.23;;
10442;SDS011;5269;51.146;16.986;2022-07-23T12:37:28;14.93;;;13.45;;
10442;SDS011;5269;51.146;16.986;2022-07-23T12:39:57;15.98;;;14.50;;
10442;SDS011;5269;51.146;16.986;2022-07-23T12:42:24;16.58;;;14.40;;
10442;SDS011;5269;51.146;16.986;2022-07-23T12:45:06;15.80;;;13.48;;
10442;SDS011;5269;51.146;16.986;2022-07-23T12:50:35;15.68;;;13.80;;
10442;SDS011;5269;51.146;16.986;2022-07-23T12:53:08;14.65;;;13.25;;
10442;SDS011;5269;51.146;16.986;2022-07-23T12:55:37;14.15;;;12.75;;
10442;SDS011;5269;51.146;16.986;2022-07-23T12:58:05;14.55;;;13.15;;
10442;SDS011;5269;51.146;16.986;2022-07-23T13:00:53;16.02;;;13.20;;
10442;SDS011;5269;51.146;16.986;2022-07-23T13:03:26;14.93;;;13.55;;
10442;SDS011;5269;51.146;16.986;2022-07-23T13:05:55;15.40;;;13.05;;
10442;SDS011;5269;51.146;16.986;2022-07-23T13:08:23;14.27;;;12.98;;
10442;SDS011;5269;51.146;16.986;2022-07-23T13:10:53;14.00;;;12.57;;
10442;SDS011;5269;51.146;16.986;2022-07-23T13:13:25;14.77;;;13.15;;
10442;SDS011;5269;51.146;16.986;2022-07-23T13:15:57;14.63;;;13.25;;
10442;SDS011;5269;51.146;16.986;2022-07-23T13:18:24;13.57;;;12.38;;
10442;SDS011;5269;51.146;16.986;2022-07-23T13:20:52;14.48;;;13.15;;
10442;SDS011;5269;51.146;16.986;2022-07-23T13:23:19;14.57;;;13.07;;
10442;SDS011;5269;51.146;16.986;2022-07-23T13:25:47;13.77;;;12.35;;
10442;SDS011;5269;51.146;16.986;2022-07-23T13:28:14;13.60;;;12.18;;
10442;SDS011;5269;51.146;16.986;2022-07-23T13:30:43;13.82;;;12.40;;
10442;SDS011;5269;51.146;16.986;2022-07-23T13:33:12;16.27;;;12.10;;
10442;SDS011;5269;51.146;16.986;2022-07-23T13:35:39;13.32;;;12.10;;
10442;SDS011;5269;51.146;16.986;2022-07-23T13:38:06;14.05;;;12.55;;
10442;SDS011;5269;51.146;16.986;2022-07-23T13:40:36;14.35;;;12.95;;
10442;SDS011;5269;51.146;16.986;2022-07-23T13:43:05;13.30;;;11.93;;
10442;SDS011;5269;51.146;16.986;2022-07-23T13:45:32;13.30;;;12.05;;
10442;SDS011;5269;51.146;16.986;2022-07-23T13:47:59;15.20;;;11.60;;
10442;SDS011;5269;51.146;16.986;2022-07-23T13:50:28;12.77;;;11.48;;
10442;SDS011;5269;51.146;16.986;2022-07-23T13:52:55;12.38;;;11.32;;
10442;SDS011;5269;51.146;16.986;2022-07-23T13:55:22;14.63;;;11.73;;
10442;SDS011;5269;51.146;16.986;2022-07-23T13:57:49;12.85;;;11.65;;
10442;SDS011;5269;51.146;16.986;2022-07-23T14:00:16;13.25;;;11.75;;
10442;SDS011;5269;51.146;16.986;2022-07-23T14:02:44;13.25;;;11.82;;
10442;SDS011;5269;51.146;16.986;2022-07-23T14:05:11;16.77;;;11.27;;
10442;SDS011;5269;51.146;16.986;2022-07-23T14:07:39;12.52;;;11.38;;
10442;SDS011;5269;51.146;16.986;2022-07-23T14:10:08;14.80;;;11.50;;
10442;SDS011;5269;51.146;16.986;2022-07-23T14:12:35;10.93;;;9.93;;
10442;SDS011;5269;51.146;16.986;2022-07-23T14:15:02;12.40;;;11.10;;
10442;SDS011;5269;51.146;16.986;2022-07-23T14:17:31;12.80;;;11.15;;
10442;SDS011;5269;51.146;16.986;2022-07-23T14:19:58;11.82;;;10.45;;
10442;SDS011;5269;51.146;16.986;2022-07-23T14:22:25;12.18;;;11.00;;
10442;SDS011;5269;51.146;16.986;2022-07-23T14:24:55;11.75;;;10.50;;
10442;SDS011;5269;51.146;16.986;2022-07-23T14:27:22;13.30;;;10.40;;
10442;SDS011;5269;51.146;16.986;2022-07-23T14:29:49;12.77;;;11.20;;
10442;SDS011;5269;51.146;16.986;2022-07-23T14:32:16;11.90;;;10.90;;
10442;SDS011;5269;51.146;16.986;2022-07-23T14:34:43;12.85;;;11.52;;
10442;SDS011;5269;51.146;16.986;2022-07-23T14:37:10;12.30;;;10.63;;
10442;SDS011;5269;51.146;16.986;2022-07-23T14:39:37;11.82;;;10.65;;
10442;SDS011;5269;51.146;16.986;2022-07-23T14:42:06;14.23;;;11.65;;
10442;SDS011;5269;51.146;16.986;2022-07-23T14:44:34;12.05;;;10.88;;
10442;SDS011;5269;51.146;16.986;2022-07-23T14:47:01;12.57;;;11.38;;
10442;SDS011;5269;51.146;16.986;2022-07-23T14:49:29;12.27;;;11.18;;
10442;SDS011;5269;51.146;16.986;2022-07-23T14:51:56;12.00;;;10.85;;